GMFO/OUD METAR and TAF weather

Enter ICAO airport designator
Station Type Date Time Source
GMFO METAR 2022/11/26 08:00 UTC NOAA

GMFO 260800Z 18004KT 9999 FEW005 09/08 Q1029 NOSIG


Station Type Date Time Source
GMFO Decoded METAR 2022/11/26 08:00 UTC NOAA

Oujda, Morocco (GMFO) 34-47N 001-56W 470M
Nov 26, 2022 - 03:00 AM EST / 2022.11.26 0800 UTC
Wind: from the S (180 degrees) at 5 MPH (4 KT):0
Visibility: greater than 7 mile(s):0
Sky conditions: mostly clear
Temperature: 48 F (9 C)
Dew Point: 46 F (8 C)
Relative Humidity: 93%
Pressure (altimeter): 30.39 in. Hg (1029 hPa)
ob: GMFO 260800Z 18004KT 9999 FEW005 09/08 Q1029 NOSIG
cycle: 8

Station Type Date Time Source
GMFO TAF 2022/11/26 06:54 UTC NOAA

TAF
AMD GMFO 260500Z 2606/2712 VRB03KT 9999 FEW030 PROB30 2606/2609 3000 BR
TEMPO 2613/2618 33012KT

Example: see airport list